Time;durP1;ratioP1;P1;durP2;ratioP2;P2;SDS_P1;SDS_P2;PMS_P1;PMS_P2;Temp;Humidity;BMP_temperature;BMP_pressure;BME280_temperature;BME280_humidity;BME280_pressure;Samples;Min_cycle;Max_cycle;Signal;HPM_P1;HPM_P2
2021/10/23 00:00:40;;;;;;;3.78;1.52;;;4.00;89.40;;;;;;4915820;28;20035;-68
2021/10/23 00:03:06;;;;;;;2.90;1.73;;;3.90;88.90;;;;;;4905734;29;20032;-69
2021/10/23 00:05:32;;;;;;;2.03;1.70;;;3.80;90.00;;;;;;4905190;29;20043;-69
2021/10/23 00:07:58;;;;;;;2.92;1.73;;;3.70;90.40;;;;;;4907340;29;20629;-68
2021/10/23 00:10:24;;;;;;;4.20;1.90;;;3.70;90.90;;;;;;4917231;29;20123;-69
2021/10/23 00:12:49;;;;;;;2.75;2.03;;;3.70;90.90;;;;;;4908092;29;20110;-68
2021/10/23 00:15:15;;;;;;;7.68;2.20;;;3.70;90.90;;;;;;4911221;29;20036;-68
2021/10/23 00:17:40;;;;;;;4.03;1.83;;;3.70;90.90;;;;;;4897260;29;20032;-68
2021/10/23 00:20:06;;;;;;;6.65;2.13;;;3.80;90.80;;;;;;4908284;29;20047;-68
2021/10/23 00:22:32;;;;;;;2.85;1.40;;;3.80;90.80;;;;;;4911139;29;20068;-68
2021/10/23 00:24:59;;;;;;;2.60;1.48;;;3.80;90.50;;;;;;4913346;29;20422;-68
2021/10/23 00:27:25;;;;;;;5.70;2.00;;;3.80;90.60;;;;;;4925242;29;20028;-68
2021/10/23 00:29:52;;;;;;;2.40;2.08;;;3.70;90.40;;;;;;4917702;29;20549;-68
2021/10/23 00:32:18;;;;;;;3.85;1.90;;;3.70;90.50;;;;;;4908555;29;20040;-68
2021/10/23 00:34:44;;;;;;;5.15;1.90;;;3.60;91.10;;;;;;4904826;29;20028;-68
2021/10/23 00:37:10;;;;;;;5.35;1.90;;;3.60;90.90;;;;;;4911695;29;20032;-68
2021/10/23 00:39:35;;;;;;;3.05;2.25;;;3.50;91.20;;;;;;4909559;29;20031;-68
2021/10/23 00:42:02;;;;;;;2.92;1.65;;;3.50;91.40;;;;;;4910496;29;20642;-68
2021/10/23 00:44:28;;;;;;;4.32;1.50;;;3.60;91.50;;;;;;4913689;29;20024;-68
2021/10/23 00:46:54;;;;;;;3.22;1.73;;;3.60;91.50;;;;;;4921600;29;20727;-68
2021/10/23 00:49:20;;;;;;;4.70;2.40;;;3.70;91.40;;;;;;4901579;29;20036;-69
2021/10/23 00:51:46;;;;;;;3.70;1.80;;;3.70;91.50;;;;;;4907805;29;20068;-68
2021/10/23 00:54:12;;;;;;;2.45;1.80;;;3.70;91.40;;;;;;4912544;29;20039;-68
2021/10/23 00:56:38;;;;;;;5.50;2.13;;;3.80;91.50;;;;;;4910710;29;20123;-68
2021/10/23 00:59:05;;;;;;;2.72;1.52;;;3.80;91.50;;;;;;4906188;29;20704;-68
2021/10/23 01:01:31;;;;;;;3.42;2.13;;;3.90;91.20;;;;;;4907549;29;20402;-68
2021/10/23 01:03:58;;;;;;;5.00;1.98;;;3.90;91.00;;;;;;4904890;29;20031;-68
2021/10/23 01:06:24;;;;;;;3.00;1.52;;;3.90;91.10;;;;;;4925186;29;20036;-69
2021/10/23 01:08:50;;;;;;;2.97;1.80;;;4.00;91.10;;;;;;4909030;29;20462;-68
2021/10/23 01:11:16;;;;;;;5.25;2.10;;;4.00;90.80;;;;;;4916419;29;20036;-68
2021/10/23 01:13:41;;;;;;;2.90;1.83;;;4.00;90.70;;;;;;4918980;29;20043;-67
2021/10/23 01:16:07;;;;;;;4.88;1.90;;;4.00;90.60;;;;;;4913742;29;20054;-68
2021/10/23 01:18:33;;;;;;;5.15;2.05;;;4.10;90.80;;;;;;4909117;29;20029;-68
2021/10/23 01:20:58;;;;;;;3.30;1.98;;;4.00;90.70;;;;;;4917948;29;20479;-68
2021/10/23 01:23:24;;;;;;;3.45;1.58;;;4.10;91.00;;;;;;4917410;29;20067;-68
2021/10/23 01:25:50;;;;;;;3.22;1.50;;;4.10;90.80;;;;;;4918663;29;20055;-67
2021/10/23 01:28:15;;;;;;;1.95;1.73;;;4.10;90.70;;;;;;4913740;29;20453;-67
2021/10/23 01:30:41;;;;;;;8.05;1.92;;;4.10;90.90;;;;;;4911578;29;20534;-67
2021/10/23 01:33:07;;;;;;;3.50;1.63;;;4.10;90.80;;;;;;4912724;29;20073;-68
2021/10/23 01:35:32;;;;;;;2.00;1.80;;;4.10;91.10;;;;;;4916893;29;20063;-68
2021/10/23 01:37:58;;;;;;;4.20;1.88;;;4.20;91.00;;;;;;4919657;29;20055;-68
2021/10/23 01:40:27;;;;;;;2.85;1.90;;;4.10;91.10;;;;;;4909163;29;20032;-67
2021/10/23 01:42:53;;;;;;;6.47;2.67;;;4.20;91.00;;;;;;4910883;29;20032;-67
2021/10/23 01:45:19;;;;;;;4.43;2.40;;;4.20;91.00;;;;;;4923674;29;20043;-68
2021/10/23 01:47:45;;;;;;;2.80;1.70;;;4.20;90.90;;;;;;4912073;29;20095;-68
2021/10/23 01:50:17;;;;;;;3.35;1.67;;;4.30;90.90;;;;;;4911019;29;20047;-68
2021/10/23 01:52:43;;;;;;;3.35;2.55;;;4.30;90.70;;;;;;4915384;29;20529;-69
2021/10/23 01:55:13;;;;;;;3.25;1.60;;;4.30;91.30;;;;;;4916067;29;20040;-68
2021/10/23 01:57:39;;;;;;;2.45;1.70;;;4.30;90.90;;;;;;4915123;29;20517;-68
2021/10/23 02:00:07;;;;;;;3.15;1.63;;;4.40;91.00;;;;;;4918433;29;20464;-69
2021/10/23 02:02:33;;;;;;;2.28;1.52;;;4.40;91.00;;;;;;4916386;29;20429;-67
2021/10/23 02:04:58;;;;;;;4.20;1.50;;;4.40;91.10;;;;;;4932327;29;20094;-67
2021/10/23 02:07:24;;;;;;;3.97;1.63;;;4.40;91.20;;;;;;4913959;29;20113;-67
2021/10/23 02:09:50;;;;;;;1.60;1.38;;;4.40;91.40;;;;;;4913905;29;20474;-67
2021/10/23 02:12:15;;;;;;;2.97;2.00;;;4.40;91.30;;;;;;4916452;29;20482;-67
2021/10/23 02:14:41;;;;;;;2.33;1.88;;;4.50;91.30;;;;;;4918797;29;20056;-67
2021/10/23 02:17:07;;;;;;;2.55;1.70;;;4.50;91.20;;;;;;4915521;29;20126;-68
2021/10/23 02:19:32;;;;;;;4.03;1.63;;;4.50;91.30;;;;;;4910107;29;20036;-67
2021/10/23 02:21:58;;;;;;;4.00;1.70;;;4.60;91.20;;;;;;4924056;29;20504;-67
2021/10/23 02:24:24;;;;;;;2.10;1.40;;;4.60;91.20;;;;;;4913488;29;20048;-67
2021/10/23 02:26:50;;;;;;;5.47;1.70;;;4.60;91.20;;;;;;4910365;29;20039;-68
2021/10/23 02:29:16;;;;;;;3.75;1.60;;;4.60;91.40;;;;;;4915592;29;20639;-68
2021/10/23 02:31:41;;;;;;;2.00;1.73;;;4.60;91.20;;;;;;4913204;29;20044;-67
2021/10/23 02:34:07;;;;;;;2.15;1.73;;;4.60;91.50;;;;;;4914995;29;20051;-68
2021/10/23 02:36:32;;;;;;;2.17;1.90;;;4.70;91.60;;;;;;4911489;29;20036;-67
2021/10/23 02:38:58;;;;;;;3.25;1.73;;;4.60;91.50;;;;;;4913713;29;20032;-67
2021/10/23 02:41:25;;;;;;;1.92;1.67;;;4.60;91.40;;;;;;4910802;29;20044;-67
2021/10/23 02:43:52;;;;;;;3.08;1.77;;;4.60;91.50;;;;;;4908350;29;20032;-68
2021/10/23 02:46:18;;;;;;;5.65;1.95;;;4.60;91.70;;;;;;4908685;29;20028;-67
2021/10/23 02:48:44;;;;;;;2.83;1.80;;;4.60;91.50;;;;;;4904193;29;20134;-67
2021/10/23 02:51:10;;;;;;;9.05;2.13;;;4.70;91.50;;;;;;4906210;29;20540;-68
2021/10/23 02:53:35;;;;;;;8.00;2.38;;;4.70;91.50;;;;;;4910647;29;20039;-68
2021/10/23 02:56:01;;;;;;;3.65;1.90;;;4.70;91.70;;;;;;4908630;29;20131;-67
2021/10/23 02:58:27;;;;;;;3.08;2.03;;;4.70;91.50;;;;;;4907346;29;20123;-68
2021/10/23 03:00:52;;;;;;;6.93;2.20;;;4.70;91.40;;;;;;4912440;29;20032;-68
2021/10/23 03:03:18;;;;;;;6.38;2.00;;;4.80;91.50;;;;;;4909609;29;20032;-68
2021/10/23 03:05:44;;;;;;;5.95;2.05;;;4.80;91.50;;;;;;4907415;29;20044;-67
2021/10/23 03:08:09;;;;;;;3.63;2.00;;;4.80;91.60;;;;;;4909721;29;20040;-68
2021/10/23 03:10:35;;;;;;;2.90;1.85;;;4.80;91.80;;;;;;4912220;29;20039;-68
2021/10/23 03:13:01;;;;;;;2.00;1.75;;;4.80;91.80;;;;;;4911259;29;20028;-68
2021/10/23 03:15:26;;;;;;;2.08;1.88;;;4.80;91.70;;;;;;4909810;29;20123;-68
2021/10/23 03:17:52;;;;;;;2.83;1.67;;;4.80;92.10;;;;;;4907114;29;20505;-68
2021/10/23 03:20:18;;;;;;;3.47;1.95;;;4.80;92.00;;;;;;4908996;29;20052;-67
2021/10/23 03:22:43;;;;;;;5.25;2.17;;;4.80;91.90;;;;;;4911676;29;20053;-68
2021/10/23 03:25:09;;;;;;;2.55;2.35;;;4.80;91.90;;;;;;4911381;29;20063;-68
2021/10/23 03:27:38;;;;;;;2.08;1.70;;;4.80;91.80;;;;;;4909434;29;20067;-67
2021/10/23 03:30:06;;;;;;;2.65;2.45;;;4.90;91.80;;;;;;4906420;29;20048;-68
2021/10/23 03:32:32;;;;;;;3.88;1.98;;;4.90;91.90;;;;;;4882461;29;20036;-67
2021/10/23 03:35:01;;;;;;;3.22;1.90;;;4.80;91.90;;;;;;4894558;29;20111;-67
2021/10/23 03:37:34;;;;;;;2.97;2.00;;;4.90;91.80;;;;;;4889792;29;21149;-68
2021/10/23 03:40:02;;;;;;;3.00;2.22;;;4.90;92.00;;;;;;4896245;29;20103;-67
2021/10/23 03:42:28;;;;;;;3.33;2.07;;;4.90;91.70;;;;;;4889597;29;20107;-69
2021/10/23 03:44:54;;;;;;;5.57;2.28;;;4.90;91.70;;;;;;4890005;29;20368;-68
2021/10/23 03:47:20;;;;;;;5.10;2.33;;;4.90;91.60;;;;;;4889453;29;20056;-68
2021/10/23 03:49:47;;;;;;;5.53;1.80;;;4.90;91.50;;;;;;4890508;29;20029;-68
2021/10/23 03:52:13;;;;;;;3.60;2.00;;;4.90;91.50;;;;;;4890462;29;20428;-68
2021/10/23 03:54:40;;;;;;;3.25;2.08;;;4.90;91.50;;;;;;4892285;29;20442;-68
2021/10/23 03:57:06;;;;;;;4.85;2.35;;;5.00;91.60;;;;;;4885905;29;20220;-68
2021/10/23 03:59:31;;;;;;;3.15;2.30;;;5.00;91.60;;;;;;4891470;29;20104;-68
2021/10/23 04:01:58;;;;;;;2.20;1.85;;;5.00;91.40;;;;;;4897047;29;20035;-68
2021/10/23 04:04:24;;;;;;;5.72;2.10;;;5.00;91.30;;;;;;4910542;29;20082;-68
2021/10/23 04:06:50;;;;;;;2.80;1.95;;;5.00;91.40;;;;;;4922889;29;20104;-68
2021/10/23 04:09:17;;;;;;;7.15;2.25;;;5.00;91.30;;;;;;4913366;29;20087;-67
2021/10/23 04:11:42;;;;;;;5.10;2.53;;;5.00;91.40;;;;;;4898642;29;20549;-67
2021/10/23 04:14:09;;;;;;;4.25;1.60;;;5.00;91.30;;;;;;4911441;29;20098;-67
2021/10/23 04:16:34;;;;;;;3.55;1.83;;;5.10;91.40;;;;;;4912973;29;20456;-68
2021/10/23 04:19:00;;;;;;;1.70;1.60;;;5.10;91.60;;;;;;4910819;29;20024;-68
2021/10/23 04:21:26;;;;;;;2.15;1.92;;;5.10;91.60;;;;;;4912738;29;20078;-68
2021/10/23 04:23:52;;;;;;;3.67;2.38;;;5.00;91.80;;;;;;4913178;29;20024;-67
2021/10/23 04:26:18;;;;;;;5.18;1.70;;;5.00;91.80;;;;;;4908575;29;20032;-68
2021/10/23 04:28:44;;;;;;;5.20;2.17;;;5.00;92.00;;;;;;4908585;29;20032;-68
2021/10/23 04:31:09;;;;;;;4.18;2.10;;;5.00;91.80;;;;;;4917167;29;20068;-67
2021/10/23 04:33:35;;;;;;;3.88;2.05;;;5.00;91.90;;;;;;4926342;29;20074;-68
2021/10/23 04:36:02;;;;;;;2.35;2.15;;;5.00;92.10;;;;;;4911586;29;20119;-68
2021/10/23 04:38:28;;;;;;;2.83;2.15;;;5.00;92.10;;;;;;4913211;29;20102;-68
2021/10/23 04:40:53;;;;;;;3.53;3.22;;;5.00;92.20;;;;;;4909170;29;20029;-67
2021/10/23 04:43:19;;;;;;;5.40;2.25;;;5.10;92.00;;;;;;4904267;29;20024;-68
2021/10/23 04:45:45;;;;;;;4.50;2.13;;;5.10;92.30;;;;;;4912932;29;20028;-67
2021/10/23 04:48:11;;;;;;;5.47;3.47;;;5.00;92.30;;;;;;4904198;29;20032;-67
2021/10/23 04:50:36;;;;;;;5.18;2.58;;;5.00;92.40;;;;;;4911755;29;20106;-67
2021/10/23 04:53:02;;;;;;;8.27;5.53;;;5.00;92.20;;;;;;4910344;29;20046;-68
2021/10/23 04:55:28;;;;;;;5.68;3.10;;;5.10;92.20;;;;;;4910274;29;20044;-68
2021/10/23 04:57:57;;;;;;;8.77;3.80;;;5.10;92.00;;;;;;4905773;29;20429;-68
2021/10/23 05:00:23;;;;;;;3.65;2.47;;;5.20;91.90;;;;;;4909146;29;20035;-68
2021/10/23 05:02:49;;;;;;;2.33;2.10;;;5.10;91.90;;;;;;4901353;29;20032;-68
2021/10/23 05:05:14;;;;;;;6.93;3.00;;;5.10;92.00;;;;;;4909790;29;20068;-68
2021/10/23 05:07:40;;;;;;;4.20;2.50;;;5.10;92.00;;;;;;4910839;29;20032;-68
2021/10/23 05:10:06;;;;;;;3.25;2.63;;;5.20;91.90;;;;;;4908953;29;20043;-67
2021/10/23 05:12:32;;;;;;;6.40;2.45;;;5.20;92.00;;;;;;4905978;29;20036;-67
2021/10/23 05:14:57;;;;;;;4.13;2.58;;;5.20;92.00;;;;;;4911222;29;20056;-67
2021/10/23 05:17:23;;;;;;;6.43;2.33;;;5.10;92.10;;;;;;4908609;29;20078;-68
2021/10/23 05:19:48;;;;;;;2.53;2.05;;;5.10;92.00;;;;;;4903465;29;20024;-68
2021/10/23 05:22:14;;;;;;;4.13;2.35;;;5.10;92.40;;;;;;4916952;29;20028;-68
2021/10/23 05:24:40;;;;;;;3.22;2.38;;;5.20;92.00;;;;;;4907606;29;20083;-68
2021/10/23 05:27:05;;;;;;;2.65;2.10;;;5.20;91.90;;;;;;4908184;29;20050;-67
2021/10/23 05:29:31;;;;;;;3.58;2.30;;;5.20;92.10;;;;;;4906414;29;20056;-68
2021/10/23 05:31:56;;;;;;;4.25;2.08;;;5.20;92.00;;;;;;4922360;29;20405;-68
2021/10/23 05:34:23;;;;;;;3.75;1.90;;;5.20;91.90;;;;;;4909034;29;20032;-68
2021/10/23 05:36:49;;;;;;;2.63;2.10;;;5.20;92.00;;;;;;4909479;29;20043;-68
2021/10/23 05:39:15;;;;;;;4.35;2.28;;;5.20;92.20;;;;;;4911473;29;21598;-67
2021/10/23 05:41:41;;;;;;;3.90;2.65;;;5.20;92.00;;;;;;4909211;29;20051;-68
2021/10/23 05:44:06;;;;;;;3.58;2.80;;;5.30;92.10;;;;;;4910111;29;20074;-68
2021/10/23 05:46:32;;;;;;;3.80;2.30;;;5.30;92.60;;;;;;4910315;29;20032;-68
2021/10/23 05:48:57;;;;;;;3.30;2.35;;;5.20;92.10;;;;;;4906952;29;20050;-68
2021/10/23 05:51:24;;;;;;;6.10;2.80;;;5.30;91.90;;;;;;4911264;29;20648;-68
2021/10/23 05:53:50;;;;;;;3.38;2.72;;;5.30;92.10;;;;;;4907910;29;20099;-68
2021/10/23 05:56:16;;;;;;;3.95;2.65;;;5.30;92.10;;;;;;4910871;29;20063;-68
2021/10/23 05:58:42;;;;;;;3.42;2.17;;;5.30;92.10;;;;;;4914484;29;20063;-68
2021/10/23 06:01:08;;;;;;;4.28;2.65;;;5.30;92.70;;;;;;4910215;29;21058;-68
2021/10/23 06:03:36;;;;;;;6.38;3.13;;;5.30;92.20;;;;;;4911086;29;20035;-68
2021/10/23 06:06:07;;;;;;;5.70;2.88;;;5.30;92.30;;;;;;4913373;29;20032;-67
2021/10/23 06:08:34;;;;;;;4.97;2.88;;;5.40;92.20;;;;;;4915924;29;20036;-68
2021/10/23 06:11:00;;;;;;;3.70;2.40;;;5.40;92.10;;;;;;4906984;29;20032;-68
2021/10/23 06:13:26;;;;;;;4.43;3.75;;;5.40;92.10;;;;;;4902185;29;20058;-68
2021/10/23 06:15:52;;;;;;;3.70;2.78;;;5.40;92.30;;;;;;4911635;29;20024;-68
2021/10/23 06:18:18;;;;;;;4.07;2.92;;;5.40;92.40;;;;;;4903595;29;20020;-68
2021/10/23 06:20:44;;;;;;;6.68;2.80;;;5.50;92.20;;;;;;4922517;29;20038;-68
2021/10/23 06:23:10;;;;;;;8.55;2.47;;;5.50;92.10;;;;;;4909114;29;20073;-68
2021/10/23 06:25:36;;;;;;;3.58;2.72;;;5.50;92.50;;;;;;4913387;29;20111;-68
2021/10/23 06:28:02;;;;;;;4.63;2.08;;;5.50;92.20;;;;;;4924446;29;20331;-68
2021/10/23 06:30:28;;;;;;;4.00;2.60;;;5.50;92.10;;;;;;4908855;29;20032;-69
2021/10/23 06:32:56;;;;;;;4.43;2.20;;;5.50;92.20;;;;;;4903376;29;20068;-68
2021/10/23 06:35:22;;;;;;;4.10;2.38;;;5.60;92.20;;;;;;4903234;29;20643;-68
2021/10/23 06:37:47;;;;;;;6.80;4.18;;;5.50;92.20;;;;;;4906580;29;20073;-68
2021/10/23 06:40:14;;;;;;;9.75;5.10;;;5.60;92.30;;;;;;4909343;29;20409;-68
2021/10/23 06:42:41;;;;;;;6.40;2.90;;;5.60;92.40;;;;;;4911052;29;20019;-68
2021/10/23 06:45:09;;;;;;;4.70;2.80;;;5.60;92.70;;;;;;4926401;29;20032;-68
2021/10/23 06:47:35;;;;;;;3.77;2.60;;;5.70;92.30;;;;;;4914826;29;20029;-68
2021/10/23 06:50:01;;;;;;;5.93;2.20;;;5.70;92.40;;;;;;4912850;29;20070;-68
2021/10/23 06:52:27;;;;;;;5.47;2.85;;;5.70;92.10;;;;;;4913741;29;20035;-68
2021/10/23 06:54:53;;;;;;;2.60;2.40;;;5.70;92.10;;;;;;4919711;29;20032;-68
2021/10/23 06:57:19;;;;;;;8.02;2.90;;;5.80;92.40;;;;;;4914836;29;20119;-68
2021/10/23 06:59:45;;;;;;;11.40;2.67;;;5.80;92.20;;;;;;4912749;29;20104;-68
2021/10/23 07:02:10;;;;;;;5.13;2.55;;;5.80;91.70;;;;;;4913648;29;20036;-68
2021/10/23 07:04:36;;;;;;;4.15;2.20;;;5.80;91.80;;;;;;4910376;29;20051;-67
2021/10/23 07:07:02;;;;;;;2.55;1.88;;;5.80;92.00;;;;;;4914559;29;20167;-68
2021/10/23 07:09:28;;;;;;;3.22;1.98;;;5.80;91.60;;;;;;4915611;29;20083;-68
2021/10/23 07:11:53;;;;;;;5.22;2.50;;;5.80;91.80;;;;;;4914858;29;20040;-68
2021/10/23 07:14:19;;;;;;;4.97;2.08;;;5.80;92.00;;;;;;4921911;29;20667;-69
2021/10/23 07:16:45;;;;;;;3.63;2.42;;;5.90;92.10;;;;;;4914918;29;20040;-69
2021/10/23 07:19:10;;;;;;;4.97;2.20;;;5.90;92.10;;;;;;4915316;29;20150;-70
2021/10/23 07:21:36;;;;;;;2.00;1.77;;;5.90;91.50;;;;;;4913909;29;20544;-69
2021/10/23 07:24:02;;;;;;;4.22;1.92;;;6.00;91.60;;;;;;4924077;29;20044;-69
2021/10/23 07:26:28;;;;;;;4.65;2.00;;;6.00;91.60;;;;;;4912208;29;20408;-69
2021/10/23 07:28:54;;;;;;;4.75;1.90;;;6.00;91.60;;;;;;4916636;29;20040;-68
2021/10/23 07:31:19;;;;;;;3.00;1.75;;;6.10;91.40;;;;;;4912820;29;20526;-67
2021/10/23 07:33:45;;;;;;;4.32;2.20;;;6.10;91.50;;;;;;4913367;29;20036;-67
2021/10/23 07:36:13;;;;;;;4.65;2.13;;;6.10;91.10;;;;;;4912780;29;20036;-67
2021/10/23 07:38:39;;;;;;;2.25;1.80;;;6.10;91.50;;;;;;4910673;29;20029;-68
2021/10/23 07:41:06;;;;;;;4.40;2.42;;;6.10;91.30;;;;;;4910608;29;20120;-67
2021/10/23 07:43:32;;;;;;;2.97;2.33;;;6.10;91.40;;;;;;4907344;29;20481;-68
2021/10/23 07:45:58;;;;;;;2.78;1.98;;;6.20;91.80;;;;;;4909915;29;20126;-68
2021/10/23 07:48:23;;;;;;;7.78;2.35;;;6.20;91.50;;;;;;4911010;29;20397;-69
2021/10/23 07:50:49;;;;;;;67.45;61.17;;;6.20;92.10;;;;;;4912477;29;20025;-67
2021/10/23 07:53:21;;;;;;;5.40;3.15;;;6.20;91.40;;;;;;4914478;29;20040;-69
2021/10/23 07:55:47;;;;;;;5.63;2.70;;;6.20;91.80;;;;;;4922181;29;20032;-70
2021/10/23 07:58:13;;;;;;;3.60;1.92;;;6.20;92.20;;;;;;4916685;29;20039;-70
2021/10/23 08:00:39;;;;;;;3.42;2.10;;;6.20;93.00;;;;;;4912101;29;20039;-69
2021/10/23 08:03:05;;;;;;;4.47;2.33;;;6.20;92.20;;;;;;4912250;29;20024;-70
2021/10/23 08:05:34;;;;;;;7.55;2.42;;;6.30;92.20;;;;;;4911609;29;20103;-69
2021/10/23 08:08:01;;;;;;;5.78;2.30;;;6.30;92.30;;;;;;4911986;29;20028;-69
2021/10/23 08:10:28;;;;;;;2.47;2.22;;;6.30;92.10;;;;;;4911275;29;20394;-68
2021/10/23 08:12:55;;;;;;;3.17;1.92;;;6.30;91.70;;;;;;4911805;29;20134;-69
2021/10/23 08:15:22;;;;;;;5.40;3.15;;;6.30;92.10;;;;;;4913835;29;20505;-69
2021/10/23 08:17:47;;;;;;;3.22;2.70;;;6.40;92.50;;;;;;4912199;29;20452;-69
2021/10/23 08:20:13;;;;;;;4.68;2.80;;;6.40;91.70;;;;;;4911412;29;20096;-69
2021/10/23 08:22:39;;;;;;;3.03;2.35;;;6.50;91.10;;;;;;4912914;29;20036;-69
2021/10/23 08:25:07;;;;;;;3.28;2.40;;;6.60;90.90;;;;;;4911499;29;20032;-68
2021/10/23 08:27:34;;;;;;;5.00;2.47;;;6.70;91.20;;;;;;4912114;29;20493;-69
2021/10/23 08:30:01;;;;;;;3.78;2.30;;;6.70;90.80;;;;;;4911897;29;20035;-69
2021/10/23 08:32:27;;;;;;;5.95;3.22;;;6.80;91.60;;;;;;4909273;29;20095;-69
2021/10/23 08:34:54;;;;;;;5.70;2.78;;;6.90;91.50;;;;;;4914197;29;20040;-69
2021/10/23 08:37:19;;;;;;;5.22;2.85;;;6.90;91.10;;;;;;4911787;29;20126;-69
2021/10/23 08:39:45;;;;;;;4.47;2.40;;;6.90;91.40;;;;;;4912236;29;20114;-69
2021/10/23 08:42:11;;;;;;;5.88;2.58;;;6.90;90.30;;;;;;4912192;29;20028;-69
2021/10/23 08:44:38;;;;;;;3.63;2.47;;;6.90;90.60;;;;;;4911732;29;20024;-69
2021/10/23 08:47:06;;;;;;;5.85;2.40;;;6.90;90.60;;;;;;4913441;29;20087;-69
2021/10/23 08:49:34;;;;;;;8.70;2.83;;;6.90;91.00;;;;;;4910456;29;20032;-69
2021/10/23 08:52:00;;;;;;;9.80;2.50;;;7.00;91.30;;;;;;4909171;29;20867;-70
2021/10/23 08:54:27;;;;;;;6.78;2.92;;;7.00;91.30;;;;;;4911079;29;20036;-70
2021/10/23 08:56:52;;;;;;;3.70;2.85;;;7.00;91.20;;;;;;4911190;29;20060;-69
2021/10/23 08:59:18;;;;;;;4.80;2.30;;;7.10;90.90;;;;;;4909605;29;20522;-69
2021/10/23 09:01:44;;;;;;;3.40;2.13;;;7.20;90.90;;;;;;4910195;29;20036;-70
2021/10/23 09:04:10;;;;;;;5.82;2.50;;;7.20;90.30;;;;;;4911174;29;20099;-69
2021/10/23 09:06:39;;;;;;;6.43;2.50;;;7.20;89.80;;;;;;4908802;29;20605;-69
2021/10/23 09:09:10;;;;;;;5.75;2.55;;;7.20;90.00;;;;;;4911368;29;20556;-70
2021/10/23 09:11:37;;;;;;;6.57;2.00;;;7.30;90.20;;;;;;4909553;29;20036;-69
2021/10/23 09:14:22;;;;;;;5.35;2.17;;;7.50;90.50;;;;;;4911390;29;20048;-69
2021/10/23 09:16:58;;;;;;;7.97;2.47;;;7.60;89.90;;;;;;4911307;29;20032;-70
2021/10/23 09:19:31;;;;;;;7.88;2.63;;;7.60;89.20;;;;;;4908625;29;20031;-70
2021/10/23 09:21:57;;;;;;;10.68;2.70;;;7.60;88.60;;;;;;4923398;29;20036;-70
2021/10/23 09:24:23;;;;;;;5.95;5.07;;;7.70;90.00;;;;;;4907666;29;20029;-70
2021/10/23 09:26:52;;;;;;;2.65;2.17;;;7.80;89.90;;;;;;4914636;29;20657;-69
2021/10/23 09:29:23;;;;;;;4.43;2.30;;;7.90;87.70;;;;;;4910451;29;20036;-69
2021/10/23 09:31:49;;;;;;;5.22;2.20;;;7.90;88.50;;;;;;4915540;29;20112;-70
2021/10/23 09:34:17;;;;;;;4.63;2.50;;;8.00;87.90;;;;;;4917292;29;20039;-70
2021/10/23 09:36:45;;;;;;;3.15;2.55;;;8.10;88.20;;;;;;4916003;29;20126;-70
2021/10/23 09:39:11;;;;;;;5.53;2.70;;;8.10;87.30;;;;;;4911924;29;20091;-70
2021/10/23 09:41:36;;;;;;;4.03;3.15;;;8.10;87.00;;;;;;4914062;29;20024;-70
2021/10/23 09:44:15;;;;;;;8.13;2.95;;;8.20;86.80;;;;;;4913683;29;20036;-69
2021/10/23 09:46:54;;;;;;;5.65;3.00;;;8.30;86.80;;;;;;4905678;29;20043;-70
2021/10/23 09:49:21;;;;;;;6.05;2.92;;;8.40;87.20;;;;;;4912924;29;20413;-69
2021/10/23 09:52:00;;;;;;;7.07;3.50;;;8.50;86.50;;;;;;4915068;29;20199;-70
2021/10/23 09:54:26;;;;;;;5.97;2.80;;;8.50;85.80;;;;;;4906712;29;20476;-69
2021/10/23 09:56:51;;;;;;;4.88;3.35;;;8.60;88.50;;;;;;4909242;29;20111;-69
2021/10/23 09:59:27;;;;;;;5.10;3.03;;;8.70;86.70;;;;;;4910640;29;20378;-70
2021/10/23 10:01:56;;;;;;;3.40;3.08;;;8.60;86.10;;;;;;4911185;29;20392;-69
2021/10/23 10:04:24;;;;;;;11.90;3.38;;;8.70;85.60;;;;;;4909273;29;20556;-69
2021/10/23 10:06:50;;;;;;;3.90;3.25;;;8.80;86.70;;;;;;4912218;29;20024;-69
2021/10/23 10:09:18;;;;;;;4.25;3.33;;;8.80;86.40;;;;;;4904514;29;20040;-69
2021/10/23 10:11:47;;;;;;;4.07;3.08;;;9.00;87.00;;;;;;4923682;29;20032;-69
2021/10/23 10:14:14;;;;;;;3.97;3.53;;;9.00;86.60;;;;;;4909443;29;20044;-69
2021/10/23 10:16:47;;;;;;;6.22;3.17;;;9.10;83.80;;;;;;4922286;29;20028;-69
2021/10/23 10:19:15;;;;;;;5.28;3.35;;;9.00;84.00;;;;;;4912457;29;20087;-69
2021/10/23 10:21:42;;;;;;;3.83;2.78;;;9.10;84.30;;;;;;4910808;29;20035;-69
2021/10/23 10:24:35;;;;;;;6.22;3.05;;;9.20;84.40;;;;;;4916622;29;20039;-69
2021/10/23 10:27:17;;;;;;;4.47;3.22;;;9.40;85.10;;;;;;4914273;29;20139;-69
2021/10/23 10:32:39;;;;;;;4.32;2.75;;;9.60;85.50;;;;;;4911379;29;20037;-70
2021/10/23 10:38:03;;;;;;;3.00;2.10;;;9.60;80.50;;;;;;4904218;29;20383;-70
2021/10/23 10:43:06;;;;;;;2.28;2.03;;;9.40;78.20;;;;;;4910696;29;20032;-69
2021/10/23 10:45:41;;;;;;;3.92;2.55;;;9.40;77.00;;;;;;4912253;29;20038;-69
2021/10/23 10:48:34;;;;;;;2.30;2.03;;;9.40;77.60;;;;;;4910820;29;20103;-69
2021/10/23 10:51:14;;;;;;;3.35;2.40;;;9.50;77.10;;;;;;4912684;29;20047;-69
2021/10/23 10:53:53;;;;;;;3.83;2.13;;;9.60;78.60;;;;;;4903120;29;20405;-71
2021/10/23 10:56:19;;;;;;;2.65;2.10;;;9.60;78.80;;;;;;4908190;29;20043;-70
2021/10/23 10:58:55;;;;;;;2.33;2.13;;;9.70;79.00;;;;;;4904569;29;20028;-70
2021/10/23 11:01:30;;;;;;;3.13;2.38;;;9.80;75.10;;;;;;4905859;29;20040;-70
2021/10/23 11:04:01;;;;;;;1.85;1.70;;;9.80;76.60;;;;;;4910521;29;20024;-70
2021/10/23 11:06:36;;;;;;;5.18;1.73;;;9.80;75.00;;;;;;4919344;29;20474;-70
2021/10/23 11:09:26;;;;;;;3.28;1.67;;;9.90;75.70;;;;;;4903550;29;20036;-70
2021/10/23 11:11:57;;;;;;;1.95;1.75;;;9.80;73.10;;;;;;4903472;29;20040;-70
2021/10/23 11:14:23;;;;;;;2.28;1.85;;;9.90;75.40;;;;;;4901982;29;20044;-70
2021/10/23 11:16:52;;;;;;;3.40;1.73;;;9.90;74.10;;;;;;4904195;29;20055;-70
2021/10/23 11:19:21;;;;;;;2.67;1.83;;;9.90;73.10;;;;;;4903274;29;20040;-70
2021/10/23 11:21:51;;;;;;;2.83;1.90;;;9.80;73.80;;;;;;4899229;29;20028;-69
2021/10/23 11:24:17;;;;;;;2.20;2.00;;;9.90;73.30;;;;;;4902084;29;20407;-69
2021/10/23 11:26:50;;;;;;;1.98;1.83;;;10.00;73.70;;;;;;4905032;29;20028;-69
2021/10/23 11:29:22;;;;;;;4.47;1.92;;;10.10;72.60;;;;;;4909564;29;20082;-70
2021/10/23 11:31:49;;;;;;;3.25;1.92;;;10.10;72.60;;;;;;4904209;29;20036;-70
2021/10/23 11:34:37;;;;;;;3.40;1.60;;;10.00;72.90;;;;;;4906455;29;20757;-69
2021/10/23 11:37:04;;;;;;;2.20;1.67;;;10.10;73.80;;;;;;4901393;29;20104;-70
2021/10/23 11:39:40;;;;;;;1.70;1.60;;;10.10;75.30;;;;;;4905862;29;20103;-70
2021/10/23 11:42:17;;;;;;;2.88;1.60;;;10.10;75.40;;;;;;4903551;29;20092;-69
2021/10/23 11:44:43;;;;;;;4.57;2.00;;;10.20;75.50;;;;;;4900826;29;20039;-69
2021/10/23 11:47:24;;;;;;;2.63;1.90;;;10.10;75.60;;;;;;4903603;29;20040;-69
2021/10/23 11:49:49;;;;;;;3.83;1.98;;;10.10;76.50;;;;;;4900487;29;20097;-69
2021/10/23 11:52:18;;;;;;;6.30;2.90;;;10.10;76.10;;;;;;4903959;29;20054;-69
2021/10/23 11:54:46;;;;;;;1.95;1.85;;;10.10;78.50;;;;;;4906759;29;20039;-69
2021/10/23 11:57:29;;;;;;;2.72;1.90;;;10.10;76.80;;;;;;4905258;29;20124;-69
2021/10/23 11:59:55;;;;;;;2.95;2.00;;;10.10;78.90;;;;;;4906084;29;20031;-68
2021/10/23 12:02:21;;;;;;;3.30;1.80;;;10.00;77.30;;;;;;4902985;29;20036;-70
2021/10/23 12:04:47;;;;;;;3.25;2.08;;;10.00;76.70;;;;;;4900173;29;21003;-69
2021/10/23 12:07:35;;;;;;;3.42;1.80;;;10.00;76.60;;;;;;4902073;29;20028;-69
2021/10/23 12:10:06;;;;;;;5.07;1.60;;;10.00;78.00;;;;;;4901227;29;20122;-68
2021/10/23 12:12:31;;;;;;;3.55;1.90;;;9.90;78.30;;;;;;4900971;29;20036;-69
2021/10/23 12:15:14;;;;;;;2.38;1.60;;;9.90;77.60;;;;;;4905626;29;20047;-70
2021/10/23 12:17:39;;;;;;;2.08;1.50;;;9.80;78.20;;;;;;4901441;29;20036;-69
2021/10/23 12:20:16;;;;;;;3.05;1.80;;;9.80;78.50;;;;;;4901809;29;20032;-70
2021/10/23 12:22:41;;;;;;;3.42;1.98;;;9.80;78.40;;;;;;4898681;29;20118;-69
2021/10/23 12:25:13;;;;;;;2.70;2.30;;;9.80;78.30;;;;;;4901556;29;20036;-69
2021/10/23 12:27:38;;;;;;;2.25;1.90;;;9.90;78.00;;;;;;4899288;29;20065;-69
2021/10/23 12:30:13;;;;;;;2.25;1.80;;;9.90;78.40;;;;;;4900906;29;20044;-69
2021/10/23 12:32:42;;;;;;;2.88;1.80;;;9.90;76.40;;;;;;4901103;29;20099;-69
2021/10/23 12:35:19;;;;;;;2.30;1.98;;;9.90;76.30;;;;;;4901887;29;20043;-68
2021/10/23 12:37:49;;;;;;;1.63;1.52;;;10.00;75.20;;;;;;4914437;29;20490;-68
2021/10/23 12:40:24;;;;;;;2.90;1.60;;;10.00;74.20;;;;;;4900134;29;20035;-69
2021/10/23 12:42:57;;;;;;;1.85;1.42;;;10.10;72.60;;;;;;4900042;29;20036;-68
2021/10/23 12:45:25;;;;;;;3.40;1.77;;;10.10;73.00;;;;;;4902124;29;20043;-69
2021/10/23 12:47:52;;;;;;;2.13;1.60;;;10.10;70.10;;;;;;4902549;29;20051;-68
2021/10/23 12:50:22;;;;;;;3.05;1.50;;;10.10;69.70;;;;;;4904085;29;20078;-68
2021/10/23 12:52:48;;;;;;;4.00;1.77;;;10.10;69.90;;;;;;4904255;29;20061;-68
2021/10/23 12:55:15;;;;;;;2.50;2.30;;;10.20;70.90;;;;;;4901582;29;20039;-68
2021/10/23 12:57:41;;;;;;;3.88;2.10;;;10.50;74.50;;;;;;4900384;29;20020;-68
2021/10/23 13:00:07;;;;;;;2.05;1.52;;;10.60;73.80;;;;;;4920442;29;20385;-68
2021/10/23 13:02:33;;;;;;;3.30;1.70;;;10.60;71.40;;;;;;4901761;29;20051;-69
2021/10/23 13:04:59;;;;;;;2.13;1.83;;;10.50;71.40;;;;;;4901182;29;20032;-68